Time;durP1;ratioP1;P1;durP2;ratioP2;P2;SDS_P1;SDS_P2;PMS_P1;PMS_P2;Temp;Humidity;BMP_temperature;BMP_pressure;BME280_temperature;BME280_humidity;BME280_pressure;Samples;Min_cycle;Max_cycle;Signal;HPM_P1;HPM_P2
2021/10/13 00:00:11;;;;;;;29.35;13.95;;;;;;;9.37;55.00;98898.19;5071599;28;20455;-65
2021/10/13 00:02:38;;;;;;;29.25;13.52;;;;;;;9.35;54.34;98894.97;5072852;28;20510;-64
2021/10/13 00:05:05;;;;;;;27.20;14.60;;;;;;;9.36;54.85;98901.06;5054876;28;20048;-64
2021/10/13 00:07:31;;;;;;;22.42;13.77;;;;;;;9.36;55.01;98898.44;5072654;28;20040;-65
2021/10/13 00:09:57;;;;;;;29.80;15.18;;;;;;;9.33;54.98;98891.78;5072954;28;20051;-65
2021/10/13 00:12:27;;;;;;;36.03;15.32;;;;;;;9.32;54.75;98883.03;5071464;28;20045;-65
2021/10/13 00:14:53;;;;;;;28.70;13.23;;;;;;;9.34;54.86;98882.78;5054749;28;20040;-64
2021/10/13 00:17:19;;;;;;;25.65;14.45;;;;;;;9.35;54.59;98884.38;5072743;28;20045;-65
2021/10/13 00:19:44;;;;;;;23.67;14.15;;;;;;;9.37;54.49;98887.59;5073002;28;20048;-64
2021/10/13 00:22:10;;;;;;;28.52;14.05;;;;;;;9.37;54.96;98876.22;5071105;28;20072;-65
2021/10/13 00:24:37;;;;;;;26.98;14.65;;;;;;;9.37;54.83;98876.22;5037969;28;20143;-65
2021/10/13 00:27:02;;;;;;;29.27;15.07;;;;;;;9.31;54.61;98870.84;5072348;28;20455;-65
2021/10/13 00:29:29;;;;;;;29.73;14.27;;;;;;;9.37;55.15;98870.94;5071188;28;20048;-64
2021/10/13 00:31:54;;;;;;;28.08;14.60;;;;;;;9.32;54.64;98869.81;5072688;28;20036;-65
2021/10/13 00:34:20;;;;;;;30.02;15.18;;;;;;;9.33;54.98;98874.06;5072538;28;20409;-64
2021/10/13 00:36:46;;;;;;;26.23;14.73;;;;;;;9.37;55.34;98869.06;5072253;28;20068;-64
2021/10/13 00:39:11;;;;;;;27.27;14.40;;;;;;;9.38;55.18;98870.66;5072380;28;20509;-63
2021/10/13 00:41:37;;;;;;;30.95;14.80;;;;;;;9.35;55.55;98860.56;5072112;28;20041;-65
2021/10/13 00:44:03;;;;;;;28.05;14.88;;;;;;;9.32;55.30;98861.88;5053980;28;20093;-65
2021/10/13 00:46:30;;;;;;;27.92;14.07;;;;;;;9.33;55.40;98852.09;5037506;28;20070;-65
2021/10/13 00:48:55;;;;;;;29.05;14.77;;;;;;;9.32;55.04;98847.84;5072193;28;20040;-64
2021/10/13 00:51:21;;;;;;;32.40;14.90;;;;;;;9.31;55.43;98856.81;5054094;28;20049;-65
2021/10/13 00:53:47;;;;;;;30.00;14.40;;;;;;;9.31;54.65;98856.81;5071871;28;20402;-64
2021/10/13 00:56:13;;;;;;;29.90;14.80;;;;;;;9.32;55.06;98851.31;5070625;28;20559;-64
2021/10/13 00:58:39;;;;;;;31.40;13.52;;;;;;;9.31;55.47;98854.97;5072010;28;20206;-64
2021/10/13 01:01:21;;;;;;;31.35;14.77;;;;;;;9.32;55.55;98855.78;5070544;28;20105;-65
2021/10/13 01:04:05;;;;;;;31.40;15.45;;;;;;;9.32;55.39;98848.66;5054059;28;20045;-64
2021/10/13 01:06:38;;;;;;;25.55;14.20;;;;;;;9.31;55.69;98846.25;5070406;28;20041;-66
2021/10/13 01:09:26;;;;;;;24.77;13.90;;;;;;;9.32;56.14;98851.31;5071853;28;20068;-64
2021/10/13 01:12:20;;;;;;;28.60;15.23;;;;;;;9.32;55.75;98846.03;5053825;28;20052;-66
2021/10/13 01:14:51;;;;;;;26.88;15.85;;;;;;;9.36;55.72;98856.13;5072039;28;20406;-65
2021/10/13 01:17:26;;;;;;;26.05;14.63;;;;;;;9.39;55.82;98858.28;5053567;28;20094;-65
2021/10/13 01:19:59;;;;;;;27.77;14.32;;;;;;;9.39;55.78;98855.63;5070373;28;20444;-65
2021/10/13 01:22:46;;;;;;;30.77;15.10;;;;;;;9.41;55.82;98853.53;5071407;28;20044;-64
2021/10/13 01:25:24;;;;;;;33.50;15.65;;;;;;;9.40;55.07;98850.06;5070137;28;20044;-65
2021/10/13 01:28:00;;;;;;;25.88;14.85;;;;;;;9.39;55.56;98848.47;5071194;28;20095;-65
2021/10/13 01:30:32;;;;;;;26.15;14.32;;;;;;;9.40;54.92;98847.44;5070147;28;20032;-64
2021/10/13 01:33:02;;;;;;;24.90;13.90;;;;;;;9.40;55.35;98850.06;5070044;28;20047;-65
2021/10/13 01:35:29;;;;;;;30.27;15.45;;;;;;;9.38;55.54;98841.56;5070264;28;20041;-65
2021/10/13 01:38:00;;;;;;;27.80;15.07;;;;;;;9.36;55.67;98840.25;5070021;28;20049;-64
2021/10/13 01:40:28;;;;;;;34.72;14.27;;;;;;;9.38;56.07;98843.44;5070101;28;20131;-63
2021/10/13 01:42:55;;;;;;;25.88;14.88;;;;;;;9.39;55.84;98837.13;5069817;28;20051;-65
2021/10/13 01:45:21;;;;;;;29.67;14.25;;;;;;;9.38;56.17;98832.84;5070282;28;20071;-65
2021/10/13 01:47:47;;;;;;;26.15;14.35;;;;;;;9.36;55.97;98835.75;5069914;28;20052;-65
2021/10/13 01:50:14;;;;;;;25.73;14.75;;;;;;;9.36;55.64;98840.25;5071054;28;20041;-64
2021/10/13 01:52:41;;;;;;;25.85;14.20;;;;;;;9.35;56.18;98836.78;5070118;28;20048;-64
2021/10/13 01:55:07;;;;;;;25.10;15.43;;;;;;;9.33;55.82;98828.31;5036493;28;20426;-64
2021/10/13 01:57:34;;;;;;;24.77;14.65;;;;;;;9.33;55.74;98838.88;5070230;28;20360;-64
2021/10/13 02:00:05;;;;;;;26.77;15.23;;;;;;;9.32;55.88;98835.44;5070964;28;20513;-64
2021/10/13 02:02:32;;;;;;;29.90;15.43;;;;;;;9.35;56.23;98826.19;5069686;28;20040;-65
2021/10/13 02:04:58;;;;;;;29.50;14.20;;;;;;;9.36;55.92;98829.66;5071919;28;20453;-64
2021/10/13 02:07:26;;;;;;;28.65;15.32;;;;;;;9.36;56.39;98821.72;5073633;28;20052;-64
2021/10/13 02:09:53;;;;;;;28.83;15.32;;;;;;;9.35;56.56;98817.47;5057273;28;20052;-66
2021/10/13 02:12:19;;;;;;;31.55;14.80;;;;;;;9.38;56.13;98819.63;5057326;28;20048;-64
2021/10/13 02:14:46;;;;;;;37.97;15.48;;;;;;;9.35;56.05;98820.91;5073882;28;20041;-64
2021/10/13 02:17:13;;;;;;;34.28;14.93;;;;;;;9.33;56.44;98821.16;5074810;28;20108;-65
2021/10/13 02:19:40;;;;;;;26.00;14.38;;;;;;;9.37;57.11;98820.66;5057189;28;20123;-64
2021/10/13 02:22:06;;;;;;;31.67;15.18;;;;;;;9.35;56.71;98823.53;5040168;28;20153;-64
2021/10/13 02:24:41;;;;;;;26.35;15.07;;;;;;;9.35;56.58;98822.75;5073675;28;20045;-64
2021/10/13 02:27:10;;;;;;;27.20;15.82;;;;;;;9.33;56.89;98817.72;5074582;28;20571;-65
2021/10/13 02:29:37;;;;;;;29.63;15.27;;;;;;;9.33;57.04;98818.50;5056864;28;20051;-64
2021/10/13 02:32:03;;;;;;;32.35;15.45;;;;;;;9.31;56.84;98814.50;5074632;28;20036;-64
2021/10/13 02:34:29;;;;;;;30.05;16.60;;;;;;;9.28;57.51;98812.34;5073462;28;20072;-64
2021/10/13 02:36:54;;;;;;;32.50;15.55;;;;;;;9.29;56.71;98809.47;5073115;28;20135;-65
2021/10/13 02:39:20;;;;;;;35.50;15.50;;;;;;;9.27;56.83;98810.75;5074787;28;20520;-63
2021/10/13 02:41:46;;;;;;;31.35;15.45;;;;;;;9.24;57.05;98806.75;5073474;28;20202;-65
2021/10/13 02:44:12;;;;;;;27.13;14.35;;;;;;;9.25;57.62;98804.91;5074610;28;20078;-65
2021/10/13 02:47:07;;;;;;;32.00;15.20;;;;;;;9.26;57.78;98817.06;5073125;28;20127;-66
2021/10/13 02:49:38;;;;;;;25.33;13.80;;;;;;;9.24;57.13;98819.97;5074103;28;20123;-64
2021/10/13 02:52:26;;;;;;;28.42;14.88;;;;;;;9.25;57.61;98816.28;5073023;28;20044;-65
2021/10/13 02:55:10;;;;;;;27.27;13.35;;;;;;;9.26;57.67;98812.56;5074590;28;20064;-65
2021/10/13 02:57:41;;;;;;;26.60;14.50;;;;;;;9.25;57.73;98818.13;5072985;28;20074;-66
2021/10/13 03:00:08;;;;;;;28.13;13.10;;;;;;;9.23;57.83;98813.06;5072899;28;20059;-65
2021/10/13 03:02:42;;;;;;;22.88;12.85;;;;;;;9.20;56.98;98808.25;5074619;28;20506;-65
2021/10/13 03:05:09;;;;;;;27.15;13.90;;;;;;;9.22;57.92;98816.75;5040144;28;20125;-64
2021/10/13 03:07:38;;;;;;;23.65;13.13;;;;;;;9.20;57.92;98813.53;5073063;28;20040;-64
2021/10/13 03:10:05;;;;;;;29.02;14.82;;;;;;;9.19;58.01;98808.50;5073079;28;20106;-64
2021/10/13 03:12:41;;;;;;;20.98;13.82;;;;;;;9.18;57.99;98806.94;5072932;28;20051;-64
2021/10/13 03:15:09;;;;;;;28.33;12.77;;;;;;;9.14;58.12;98808.44;5074252;28;20044;-64
2021/10/13 03:17:36;;;;;;;27.52;13.40;;;;;;;9.21;58.13;98809.09;5074085;28;20032;-65
2021/10/13 03:20:02;;;;;;;28.75;13.60;;;;;;;9.18;57.78;98799.78;5072989;28;20051;-64
2021/10/13 03:22:29;;;;;;;26.13;13.40;;;;;;;9.18;58.36;98791.84;5055967;28;20044;-65
2021/10/13 03:24:55;;;;;;;24.00;12.85;;;;;;;9.18;58.16;98786.56;5072765;28;20041;-64
2021/10/13 03:27:25;;;;;;;20.75;12.60;;;;;;;9.17;57.75;98789.44;5073680;28;20063;-65
2021/10/13 03:29:51;;;;;;;23.50;12.27;;;;;;;9.16;58.40;98790.50;5072724;28;20052;-64
2021/10/13 03:32:18;;;;;;;27.08;12.68;;;;;;;9.17;58.15;98792.09;5055649;28;20098;-66
2021/10/13 03:34:43;;;;;;;26.70;12.70;;;;;;;9.16;58.63;98786.00;5073788;28;20498;-64
2021/10/13 03:37:09;;;;;;;27.48;12.20;;;;;;;9.16;58.09;98783.34;5072167;28;20067;-66
2021/10/13 03:39:35;;;;;;;26.63;12.32;;;;;;;9.18;58.33;98793.69;5073617;28;20056;-64
2021/10/13 03:42:01;;;;;;;26.20;11.18;;;;;;;9.16;58.40;98791.28;5072050;28;20040;-66
2021/10/13 03:44:27;;;;;;;20.98;11.75;;;;;;;9.16;58.59;98786.00;5073516;28;20052;-64
2021/10/13 03:46:53;;;;;;;25.17;12.43;;;;;;;9.18;58.32;98791.06;5055110;28;20041;-65
2021/10/13 03:49:19;;;;;;;25.70;12.05;;;;;;;9.19;57.62;98785.50;5071952;28;20049;-64
2021/10/13 03:51:45;;;;;;;26.27;12.32;;;;;;;9.21;58.82;98788.72;5055130;28;20076;-65
2021/10/13 03:54:10;;;;;;;20.63;11.70;;;;;;;9.23;58.50;98780.53;5073351;28;20083;-64
2021/10/13 03:56:36;;;;;;;22.65;11.85;;;;;;;9.22;58.53;98779.75;5073363;28;20051;-65
2021/10/13 03:59:02;;;;;;;22.85;12.07;;;;;;;9.22;58.80;98773.66;5073191;28;20040;-65
2021/10/13 04:01:28;;;;;;;24.25;11.93;;;;;;;9.24;58.25;98782.16;5071808;28;20123;-65
2021/10/13 04:03:54;;;;;;;26.52;12.15;;;;;;;9.28;58.21;98780.59;5071642;28;20123;-65
2021/10/13 04:06:19;;;;;;;19.15;11.45;;;;;;;9.29;57.66;98776.91;5072635;28;20439;-65
2021/10/13 04:08:45;;;;;;;20.58;10.77;;;;;;;9.32;58.11;98781.72;5071499;28;20037;-64
2021/10/13 04:11:11;;;;;;;26.40;11.52;;;;;;;9.31;58.50;98778.28;5071256;28;20106;-64
2021/10/13 04:13:37;;;;;;;23.95;11.20;;;;;;;9.28;58.69;98777.97;5072853;28;20075;-64
2021/10/13 04:16:03;;;;;;;25.23;12.05;;;;;;;9.27;58.94;98779.81;5072687;28;20123;-66
2021/10/13 04:18:29;;;;;;;24.92;12.30;;;;;;;9.29;58.41;98774.28;5054580;28;20131;-64
2021/10/13 04:20:54;;;;;;;23.02;11.40;;;;;;;9.29;58.22;98783.03;5072528;28;20525;-64
2021/10/13 04:23:20;;;;;;;20.88;12.13;;;;;;;9.31;57.67;98785.41;5054502;28;20041;-64
2021/10/13 04:25:46;;;;;;;25.77;12.27;;;;;;;9.33;58.23;98789.41;5072273;28;20075;-64
2021/10/13 04:28:12;;;;;;;24.33;12.07;;;;;;;9.36;58.70;98790.00;5070404;28;20515;-65
2021/10/13 04:30:39;;;;;;;26.02;10.38;;;;;;;9.38;58.12;98785.22;5072223;28;20123;-66
2021/10/13 04:33:05;;;;;;;22.98;11.43;;;;;;;9.40;58.47;98789.25;5070841;28;20090;-65
2021/10/13 04:35:31;;;;;;;25.83;11.23;;;;;;;9.45;58.17;98791.97;5072222;28;20040;-65
2021/10/13 04:37:57;;;;;;;32.58;12.43;;;;;;;9.46;58.32;98774.22;5071896;28;20083;-64
2021/10/13 04:40:23;;;;;;;20.48;10.50;;;;;;;9.48;58.11;98777.44;5072038;28;20115;-66
2021/10/13 04:42:49;;;;;;;29.45;12.20;;;;;;;9.49;57.96;98768.44;5054090;28;20474;-65
2021/10/13 04:45:15;;;;;;;25.25;12.10;;;;;;;9.50;58.28;98773.50;5054090;28;20131;-65
2021/10/13 04:47:41;;;;;;;22.20;11.80;;;;;;;9.51;58.20;98767.16;5070467;28;20040;-66
2021/10/13 04:50:07;;;;;;;24.42;11.75;;;;;;;9.54;57.85;98771.16;5071789;28;20041;-65
2021/10/13 04:52:33;;;;;;;24.17;11.18;;;;;;;9.52;57.99;98774.06;5071646;28;20455;-64
2021/10/13 04:54:59;;;;;;;36.35;20.92;;;;;;;9.51;58.40;98776.97;5037031;28;20140;-66
2021/10/13 04:57:24;;;;;;;20.88;10.80;;;;;;;9.50;58.59;98772.69;5070349;28;20032;-65
2021/10/13 04:59:54;;;;;;;22.15;10.20;;;;;;;9.50;59.42;98778.81;5054005;28;20094;-65
2021/10/13 05:02:20;;;;;;;21.85;10.82;;;;;;;9.51;58.51;98788.34;5070786;28;20040;-64
2021/10/13 05:04:45;;;;;;;22.73;11.25;;;;;;;9.53;58.99;98783.59;5070469;28;20463;-64
2021/10/13 05:07:11;;;;;;;20.02;10.90;;;;;;;9.52;59.87;98783.84;5071531;28;20064;-66
2021/10/13 05:09:37;;;;;;;22.45;11.65;;;;;;;9.52;60.29;98783.84;5071898;28;20754;-65
2021/10/13 05:12:03;;;;;;;23.13;11.10;;;;;;;9.49;61.25;98785.13;5070308;28;20143;-64
2021/10/13 05:14:29;;;;;;;19.60;10.77;;;;;;;9.43;60.74;98787.94;5071715;28;20402;-64
2021/10/13 05:16:55;;;;;;;23.45;10.48;;;;;;;9.39;61.80;98785.00;5053635;28;20040;-67
2021/10/13 05:19:20;;;;;;;24.00;11.02;;;;;;;9.37;61.65;98794.22;5036963;28;20055;-65
2021/10/13 05:21:46;;;;;;;20.80;10.95;;;;;;;9.36;62.85;98805.84;5071038;28;20048;-66
2021/10/13 05:24:12;;;;;;;19.52;10.80;;;;;;;9.28;62.82;98802.56;5071603;28;20158;-65
2021/10/13 05:26:38;;;;;;;22.55;11.60;;;;;;;9.21;64.14;98799.31;5053248;28;20459;-65
2021/10/13 05:29:04;;;;;;;21.15;11.75;;;;;;;9.18;63.91;98799.00;5070136;28;20416;-65
2021/10/13 05:31:30;;;;;;;25.38;11.95;;;;;;;9.13;64.19;98804.19;5069858;28;20040;-65
2021/10/13 05:33:56;;;;;;;19.00;11.15;;;;;;;9.10;65.04;98806.28;5070945;28;20131;-65
2021/10/13 05:36:22;;;;;;;22.20;12.65;;;;;;;9.08;65.93;98808.34;5070946;28;20063;-65
2021/10/13 05:38:48;;;;;;;21.17;12.50;;;;;;;9.03;67.42;98805.66;5070258;28;20105;-65
2021/10/13 05:41:13;;;;;;;22.92;12.38;;;;;;;8.99;67.55;98801.88;5071029;28;20036;-66
2021/10/13 05:43:39;;;;;;;20.75;12.45;;;;;;;8.99;67.74;98801.06;5071202;28;20041;-64
2021/10/13 05:46:05;;;;;;;26.13;12.45;;;;;;;8.96;68.34;98805.00;5069866;28;20075;-65
2021/10/13 05:48:31;;;;;;;26.83;12.10;;;;;;;8.96;67.89;98804.19;5070879;28;20051;-66
2021/10/13 05:50:56;;;;;;;21.50;11.63;;;;;;;8.92;68.20;98808.38;5071003;28;20079;-66
2021/10/13 05:53:22;;;;;;;24.15;12.15;;;;;;;8.96;68.22;98815.56;5069610;28;20136;-65
2021/10/13 05:55:49;;;;;;;25.92;12.73;;;;;;;8.96;67.74;98812.94;5036585;28;20033;-66
2021/10/13 05:58:17;;;;;;;27.10;13.63;;;;;;;8.96;68.53;98814.78;5053049;28;20040;-65
2021/10/13 06:00:46;;;;;;;23.10;12.48;;;;;;;8.97;68.06;98814.53;5071112;28;20052;-64
2021/10/13 06:03:11;;;;;;;25.48;12.82;;;;;;;8.98;68.14;98808.22;5071168;28;20045;-66
2021/10/13 06:05:38;;;;;;;24.98;13.73;;;;;;;8.99;68.63;98811.66;5069856;28;20049;-66
2021/10/13 06:08:04;;;;;;;26.02;13.60;;;;;;;9.01;69.27;98810.38;5070799;28;20110;-64
2021/10/13 06:10:30;;;;;;;27.58;13.70;;;;;;;8.99;68.71;98811.66;5070694;28;20052;-65
2021/10/13 06:12:55;;;;;;;24.73;13.93;;;;;;;8.95;69.00;98816.63;5070955;28;20043;-65
2021/10/13 06:15:23;;;;;;;21.42;12.20;;;;;;;8.99;68.58;98803.72;5070837;28;20041;-66
2021/10/13 06:17:49;;;;;;;26.33;13.63;;;;;;;9.06;69.84;98799.09;5070832;28;20051;-65
2021/10/13 06:20:15;;;;;;;21.70;12.73;;;;;;;9.09;69.50;98790.66;5070822;28;20072;-65
2021/10/13 06:22:41;;;;;;;23.27;13.30;;;;;;;9.15;69.09;98784.41;5070551;28;20040;-66
2021/10/13 06:25:07;;;;;;;26.83;13.35;;;;;;;9.15;69.61;98781.75;5071123;28;20056;-65
2021/10/13 06:27:33;;;;;;;27.20;13.63;;;;;;;9.18;68.98;98788.41;5070740;28;20044;-67
2021/10/13 06:29:59;;;;;;;27.52;13.50;;;;;;;9.17;69.23;98781.50;5069578;28;20078;-65
2021/10/13 06:32:25;;;;;;;24.13;14.13;;;;;;;9.17;69.48;98778.84;5019718;28;20036;-66
2021/10/13 06:34:51;;;;;;;24.25;13.38;;;;;;;9.13;68.95;98777.75;5069223;28;20041;-66
2021/10/13 06:37:17;;;;;;;22.88;13.32;;;;;;;9.15;68.82;98783.59;5069195;28;20074;-67
2021/10/13 06:39:43;;;;;;;27.90;13.90;;;;;;;9.14;69.13;98772.22;5070527;28;20127;-66
2021/10/13 06:42:08;;;;;;;22.40;12.93;;;;;;;9.18;69.21;98769.91;5069398;28;20047;-66
2021/10/13 06:44:34;;;;;;;22.98;13.57;;;;;;;9.30;68.43;98774.03;5070859;28;20055;-65
2021/10/13 06:47:00;;;;;;;25.20;13.07;;;;;;;9.41;68.47;98771.50;5070469;28;20054;-66
2021/10/13 06:49:26;;;;;;;20.27;12.43;;;;;;;9.45;68.36;98772.66;5069265;28;20165;-64
2021/10/13 06:51:52;;;;;;;24.33;12.90;;;;;;;9.44;67.59;98777.16;5072645;28;20040;-65
2021/10/13 06:54:17;;;;;;;24.65;13.38;;;;;;;9.47;67.76;98775.81;5056156;28;20040;-65
2021/10/13 06:56:43;;;;;;;24.25;13.05;;;;;;;9.53;67.48;98788.09;5074320;28;20497;-65
2021/10/13 06:59:09;;;;;;;27.73;13.30;;;;;;;9.62;66.62;98789.28;5074129;28;20040;-65
2021/10/13 07:01:35;;;;;;;21.58;13.25;;;;;;;9.67;66.04;98786.66;5074018;28;20498;-66
2021/10/13 07:04:01;;;;;;;25.58;13.63;;;;;;;9.74;66.01;98789.16;5073570;28;20128;-65
2021/10/13 07:06:27;;;;;;;25.98;13.65;;;;;;;9.84;66.11;98791.13;5072305;28;20044;-65
2021/10/13 07:08:53;;;;;;;24.35;12.73;;;;;;;9.82;65.54;98795.84;5073936;28;20048;-66
2021/10/13 07:11:23;;;;;;;27.83;13.30;;;;;;;9.81;66.53;98791.63;5073847;28;20469;-66
2021/10/13 07:13:49;;;;;;;25.42;13.68;;;;;;;9.82;65.77;98791.34;5073915;28;20482;-66
2021/10/13 07:16:15;;;;;;;27.30;13.10;;;;;;;9.81;65.99;98786.31;5073680;28;20044;-66
2021/10/13 07:18:41;;;;;;;23.98;14.05;;;;;;;9.81;66.37;98789.75;5073706;28;20044;-65
2021/10/13 07:21:07;;;;;;;27.27;12.95;;;;;;;9.85;65.81;98787.41;5072279;28;20048;-65
2021/10/13 07:23:32;;;;;;;27.00;13.95;;;;;;;9.83;65.96;98792.97;5073460;28;20472;-65
2021/10/13 07:25:58;;;;;;;25.48;14.40;;;;;;;9.92;65.90;98788.84;5073659;28;20044;-64
2021/10/13 07:28:26;;;;;;;26.95;13.63;;;;;;;10.14;64.78;98794.09;5072210;28;20340;-65
2021/10/13 07:30:52;;;;;;;24.35;14.77;;;;;;;10.31;64.25;98804.63;5073719;28;20043;-66
2021/10/13 07:33:18;;;;;;;23.95;13.48;;;;;;;10.45;64.19;98813.78;5073363;28;20123;-64
2021/10/13 07:35:44;;;;;;;22.27;13.13;;;;;;;10.43;65.23;98813.22;5073684;28;20041;-66
2021/10/13 07:38:11;;;;;;;26.25;13.88;;;;;;;10.53;65.14;98811.72;5071941;28;20097;-65
2021/10/13 07:40:37;;;;;;;30.77;14.48;;;;;;;10.50;64.56;98804.28;5055394;28;20498;-65
2021/10/13 07:43:03;;;;;;;26.27;13.75;;;;;;;10.62;63.48;98813.69;5073105;28;20048;-65
2021/10/13 07:45:29;;;;;;;24.92;13.30;;;;;;;10.77;63.47;98820.19;5055252;28;20040;-65
2021/10/13 07:47:55;;;;;;;29.98;14.27;;;;;;;10.85;63.57;98831.13;5071762;28;20090;-64
2021/10/13 07:50:21;;;;;;;29.27;13.50;;;;;;;10.94;63.51;98835.94;5055247;28;20590;-65
2021/10/13 07:52:47;;;;;;;27.15;13.55;;;;;;;10.92;63.53;98812.34;5073169;28;20043;-65
2021/10/13 07:55:13;;;;;;;25.55;13.80;;;;;;;10.95;63.41;98817.16;5072617;28;20047;-66
2021/10/13 07:57:39;;;;;;;27.98;15.35;;;;;;;11.14;63.41;98815.69;5072661;28;20047;-65
2021/10/13 08:00:06;;;;;;;28.85;13.82;;;;;;;11.28;61.97;98804.63;5072839;28;20048;-66
2021/10/13 08:02:31;;;;;;;25.55;14.15;;;;;;;11.24;61.36;98804.34;5071865;28;20514;-65
2021/10/13 08:04:57;;;;;;;30.10;14.63;;;;;;;11.15;61.63;98800.59;5073255;28;20144;-66
2021/10/13 08:07:23;;;;;;;25.10;13.40;;;;;;;11.12;61.80;98788.63;5072562;28;20045;-65
2021/10/13 08:09:49;;;;;;;27.98;14.82;;;;;;;11.21;61.93;98790.81;5073001;28;20131;-66
2021/10/13 08:12:15;;;;;;;29.55;15.38;;;;;;;11.25;61.74;98781.28;5021447;28;20073;-66
2021/10/13 08:14:40;;;;;;;29.80;15.20;;;;;;;11.29;61.03;98785.78;5054879;28;20051;-65
2021/10/13 08:17:09;;;;;;;29.80;15.02;;;;;;;11.30;61.25;98783.97;5072455;28;20040;-66
2021/10/13 08:19:35;;;;;;;30.88;14.88;;;;;;;11.37;61.17;98787.19;5071346;28;20048;-66
2021/10/13 08:22:00;;;;;;;29.20;15.40;;;;;;;11.40;60.88;98777.91;5071300;28;20043;-67
2021/10/13 08:24:27;;;;;;;35.45;15.57;;;;;;;11.50;60.20;98773.47;5054774;28;20430;-66
2021/10/13 08:26:53;;;;;;;30.48;15.50;;;;;;;11.50;60.01;98775.28;5072025;28;20044;-64
2021/10/13 08:29:19;;;;;;;25.38;14.57;;;;;;;11.52;60.19;98775.84;5071970;28;20138;-64
2021/10/13 08:31:45;;;;;;;25.05;14.38;;;;;;;11.58;59.68;98767.63;5072213;28;20559;-66
2021/10/13 08:34:11;;;;;;;28.45;14.73;;;;;;;11.62;58.82;98767.94;5070495;28;20490;-65
2021/10/13 08:36:37;;;;;;;25.45;14.20;;;;;;;11.59;58.18;98763.94;5072144;28;20080;-64
2021/10/13 08:39:03;;;;;;;28.75;14.30;;;;;;;11.51;58.51;98760.97;5070891;28;20036;-66
2021/10/13 08:41:28;;;;;;;26.00;13.65;;;;;;;11.62;58.39;98770.59;5071968;28;20036;-65
2021/10/13 08:43:54;;;;;;;25.17;13.75;;;;;;;11.79;57.97;98767.72;5072135;28;20040;-66
2021/10/13 08:46:20;;;;;;;32.38;15.10;;;;;;;11.79;57.91;98767.72;5071857;28;20045;-69
2021/10/13 08:48:46;;;;;;;25.92;13.95;;;;;;;11.81;57.94;98762.97;5071976;28;20051;-65
2021/10/13 08:51:11;;;;;;;26.05;13.90;;;;;;;11.84;57.28;98767.75;5070533;28;20070;-66
2021/10/13 08:53:37;;;;;;;27.52;14.88;;;;;;;11.81;57.64;98768.25;5071891;28;20052;-65
2021/10/13 08:56:03;;;;;;;27.92;14.80;;;;;;;11.77;57.85;98767.19;5071530;28;20043;-66
2021/10/13 08:58:29;;;;;;;30.58;14.68;;;;;;;11.66;58.54;98768.22;5070435;28;20048;-65
2021/10/13 09:01:14;;;;;;;24.27;14.30;;;;;;;11.59;58.58;98771.91;5053712;28;20036;-67
2021/10/13 09:03:45;;;;;;;33.92;14.52;;;;;;;11.60;58.46;98770.84;5070322;28;20102;-65
2021/10/13 09:06:23;;;;;;;25.85;14.05;;;;;;;11.58;59.17;98766.84;5071486;28;20571;-67
2021/10/13 09:09:05;;;;;;;33.90;16.05;;;;;;;11.66;59.54;98761.03;5070301;28;20044;-65
2021/10/13 09:11:50;;;;;;;28.30;15.10;;;;;;;11.73;58.89;98761.59;5071961;28;20079;-65
2021/10/13 09:14:22;;;;;;;26.60;15.38;;;;;;;11.87;58.91;98764.59;5071609;28;20126;-66
2021/10/13 09:16:54;;;;;;;30.38;14.48;;;;;;;12.00;58.66;98756.16;5070235;28;20415;-66
2021/10/13 09:19:26;;;;;;;25.05;14.68;;;;;;;12.13;58.73;98754.06;5071516;28;20056;-65
2021/10/13 09:21:53;;;;;;;26.00;13.98;;;;;;;12.28;58.54;98759.38;5069913;28;20222;-64
2021/10/13 09:24:20;;;;;;;31.15;14.13;;;;;;;12.47;58.34;98762.31;5071371;28;20143;-64
2021/10/13 09:26:46;;;;;;;25.05;13.13;;;;;;;12.64;57.68;98757.53;5069731;28;20119;-65
2021/10/13 09:29:12;;;;;;;29.10;13.88;;;;;;;12.79;57.47;98770.03;5069878;28;20533;-66
2021/10/13 09:31:38;;;;;;;29.95;13.95;;;;;;;12.87;57.16;98766.84;5069866;28;20040;-66
2021/10/13 09:34:12;;;;;;;26.48;13.30;;;;;;;13.09;57.04;98755.13;5070002;28;20052;-65
2021/10/13 09:36:38;;;;;;;24.70;13.68;;;;;;;13.24;56.28;98763.09;5069889;28;20517;-66
2021/10/13 09:39:08;;;;;;;24.73;13.93;;;;;;;13.33;55.74;98769.47;5071393;28;20063;-64
2021/10/13 09:42:13;;;;;;;23.50;13.98;;;;;;;13.36;55.77;98762.81;5069519;28;20044;-66
2021/10/13 09:44:56;;;;;;;21.50;13.00;;;;;;;13.30;55.98;98764.69;5069808;28;20045;-65
2021/10/13 09:47:34;;;;;;;21.95;12.82;;;;;;;13.27;56.62;98769.75;5053357;28;20045;-66
2021/10/13 09:50:01;;;;;;;27.15;14.02;;;;;;;13.22;56.65;98769.75;5071798;28;20409;-65
2021/10/13 09:52:29;;;;;;;27.15;14.18;;;;;;;13.17;56.79;98771.31;5053432;28;20088;-66
2021/10/13 09:55:11;;;;;;;26.35;14.48;;;;;;;13.08;57.18;98761.50;5071480;28;20056;-65
2021/10/13 09:57:44;;;;;;;27.33;14.10;;;;;;;13.03;57.63;98759.66;5070151;28;20502;-66
2021/10/13 10:00:13;;;;;;;23.85;14.20;;;;;;;12.93;58.03;98757.78;5069763;28;20045;-65
2021/10/13 10:02:47;;;;;;;25.52;14.30;;;;;;;13.02;57.91;98757.25;5070859;28;20048;-66
2021/10/13 10:05:18;;;;;;;26.50;13.82;;;;;;;13.11;57.74;98760.97;5069692;28;20418;-65
2021/10/13 10:08:08;;;;;;;25.60;14.73;;;;;;;13.35;57.46;98774.50;5068723;28;20053;-65
2021/10/13 10:10:56;;;;;;;25.85;13.35;;;;;;;13.37;57.62;98775.84;5069429;28;20064;-65
2021/10/13 10:13:33;;;;;;;26.38;13.75;;;;;;;13.42;57.11;98756.41;5069289;28;20464;-66
2021/10/13 10:15:59;;;;;;;28.17;14.27;;;;;;;13.63;56.86;98759.78;5068249;28;20044;-66
2021/10/13 10:18:32;;;;;;;25.85;13.82;;;;;;;13.74;57.03;98764.00;5069630;28;20055;-65
2021/10/13 10:21:25;;;;;;;23.55;14.20;;;;;;;13.76;56.85;98759.19;5034872;28;20049;-65
2021/10/13 10:23:52;;;;;;;23.35;13.68;;;;;;;13.86;55.64;98766.34;5068332;28;20040;-66
2021/10/13 10:26:29;;;;;;;25.60;14.35;;;;;;;13.88;56.39;98768.72;5070769;28;20056;-66
2021/10/13 10:29:12;;;;;;;24.88;13.52;;;;;;;13.89;56.52;98773.00;5073879;28;20048;-65
2021/10/13 10:31:40;;;;;;;24.25;14.65;;;;;;;13.89;56.64;98768.47;5073642;28;20040;-66
2021/10/13 10:34:06;;;;;;;35.10;14.10;;;;;;;13.99;56.54;98784.41;5072985;28;20040;-64
2021/10/13 10:36:35;;;;;;;25.98;13.30;;;;;;;13.99;56.27;98789.72;5071579;28;20138;-67
2021/10/13 10:39:02;;;;;;;29.17;15.07;;;;;;;14.01;56.22;98789.47;5071569;28;20048;-65
2021/10/13 10:41:49;;;;;;;29.25;15.13;;;;;;;14.03;55.99;98790.78;5055154;28;20514;-64
2021/10/13 10:44:37;;;;;;;28.67;13.57;;;;;;;14.09;56.07;98796.91;5071883;28;20529;-65
2021/10/13 10:47:14;;;;;;;21.80;13.20;;;;;;;14.11;56.08;98800.06;5071864;28;20052;-65
2021/10/13 10:49:43;;;;;;;28.27;14.52;;;;;;;14.19;55.74;98790.69;5073300;28;20044;-65
2021/10/13 10:52:10;;;;;;;25.23;14.38;;;;;;;14.36;55.49;98788.47;5072376;28;20065;-66
2021/10/13 10:54:36;;;;;;;21.73;13.00;;;;;;;14.54;54.53;98787.03;5073192;28;20044;-65
2021/10/13 10:57:03;;;;;;;25.63;14.35;;;;;;;14.63;53.67;98789.91;5071142;28;20131;-66
2021/10/13 10:59:46;;;;;;;24.42;13.50;;;;;;;14.53;53.86;98782.78;5054547;28;20047;-64
2021/10/13 11:02:13;;;;;;;30.98;14.73;;;;;;;14.43;54.27;98788.16;5073263;28;20440;-66
2021/10/13 11:04:41;;;;;;;26.38;13.95;;;;;;;14.36;54.30;98788.47;5072685;28;20057;-66
2021/10/13 11:07:17;;;;;;;25.30;15.55;;;;;;;14.29;54.13;98788.78;5055762;28;20044;-66
2021/10/13 11:09:43;;;;;;;26.60;14.82;;;;;;;14.27;53.89;98782.94;5074144;28;20063;-65
2021/10/13 11:12:21;;;;;;;28.50;15.05;;;;;;;14.28;54.52;98784.50;5072401;28;20084;-64
2021/10/13 11:14:47;;;;;;;28.17;14.13;;;;;;;14.19;54.49;98791.50;5072498;28;20052;-64
2021/10/13 11:17:24;;;;;;;24.38;15.00;;;;;;;14.06;54.98;98790.25;5073812;28;20044;-66
2021/10/13 11:20:12;;;;;;;26.05;14.25;;;;;;;13.99;55.46;98794.25;5072114;28;20044;-65
2021/10/13 11:22:41;;;;;;;22.98;12.07;;;;;;;13.98;55.44;98787.34;5072547;28;20037;-64
2021/10/13 11:25:18;;;;;;;29.90;13.80;;;;;;;13.95;55.54;98786.03;5072250;28;20052;-67
2021/10/13 11:28:04;;;;;;;25.27;13.95;;;;;;;14.04;55.68;98788.91;5072184;28;20041;-65